aviador You're here:

LFBD Decoded Metar

BORDEAUX in FRANCE
Report Time2018-05-28 05:00:00
UTC Time2018-05-28 05:18:13
Flight Rules mvfr MVFR
Wind300° at 06 kt
W.Decomp.*RWY 29: 5.9 kt HW 1.1 kt RCW
RWY 23: 2.0 kt HW 5.7 kt RCW
W.Rank300° ranks 7
Current wind is below 300° avg. (7.6)
Visibility9999 m
Phenomena:N/A
Clouds:Overcast 011 Hf
Expected CloudBase > 400 ft AGL from Temp-Dew spread
Ceiling1,100 ft
Temp16°C (ISA +1)
Dew Point15°C (94% RH)
AAT15.5°C
QNH1014 hPa
Density Alt558 ft
Elevation200 ft
Report Wrong Elevation
Raw Report
LFBD 280500Z AUTO 30006KT 9999 OVC011/// ///TCU 16/15 Q1014 TEMPO
4000 SHRA=

Extra information for LFBD:More info

Metar Taf Metar & Taf Last 4 Metars F.Rules Stats Wind Profile Meteogram Temp Stats Airport Information Weather charts Add Link Nearby VenuesMetar ALERT Operation Metar Decoded Social comments